createdAt,value
2022-08-07T00:00:03.523Z,17.3
2022-08-07T00:01:00.302Z,17.3
2022-08-07T00:02:39.724Z,17.2
2022-08-07T00:03:00.482Z,17.2
2022-08-07T00:04:00.248Z,17.1
2022-08-07T00:05:00.243Z,17.1
2022-08-07T00:06:00.179Z,17.2
2022-08-07T00:07:01.436Z,17.2
2022-08-07T00:08:02.142Z,17.1
2022-08-07T00:09:17.034Z,17.1
2022-08-07T00:10:25.515Z,17.1
2022-08-07T00:11:00.149Z,17.1
2022-08-07T00:12:00.154Z,17.1
2022-08-07T00:13:02.468Z,17.1
2022-08-07T00:14:00.161Z,17.1
2022-08-07T00:15:00.175Z,17.1
2022-08-07T00:16:00.167Z,17.0
2022-08-07T00:17:01.705Z,17.0
2022-08-07T00:18:00.161Z,17.1
2022-08-07T00:19:00.158Z,17.1
2022-08-07T00:20:03.293Z,17.0
2022-08-07T00:21:07.811Z,17.0
2022-08-07T00:22:03.257Z,16.8
2022-08-07T00:23:00.268Z,16.8
2022-08-07T00:24:00.180Z,16.8
2022-08-07T00:25:00.222Z,16.8
2022-08-07T00:26:06.894Z,16.9
2022-08-07T00:27:07.470Z,16.9
2022-08-07T00:28:00.270Z,16.9
2022-08-07T00:29:00.143Z,16.9
2022-08-07T00:30:00.415Z,16.8
2022-08-07T00:31:01.334Z,16.8
2022-08-07T00:32:00.242Z,16.8
2022-08-07T00:33:00.293Z,16.8
2022-08-07T00:34:00.165Z,16.8
2022-08-07T00:35:00.215Z,16.8
2022-08-07T00:36:00.257Z,16.7
2022-08-07T00:37:00.168Z,16.7
2022-08-07T00:38:00.332Z,16.8
2022-08-07T00:39:00.258Z,16.8
2022-08-07T00:40:00.306Z,16.8
2022-08-07T00:41:00.223Z,16.8
2022-08-07T00:42:02.547Z,16.5
2022-08-07T00:43:00.223Z,16.5
2022-08-07T00:44:02.684Z,16.5
2022-08-07T00:45:00.200Z,16.5
2022-08-07T00:46:00.594Z,16.6
2022-08-07T00:47:01.501Z,16.6
2022-08-07T00:48:08.302Z,16.7
2022-08-07T00:49:02.040Z,16.7
2022-08-07T00:50:19.693Z,16.7
2022-08-07T00:51:00.529Z,16.7
2022-08-07T00:52:00.185Z,16.6
2022-08-07T00:53:00.161Z,16.6
2022-08-07T00:54:00.152Z,16.6
2022-08-07T00:55:04.964Z,16.6
2022-08-07T00:56:02.424Z,16.6
2022-08-07T00:57:00.478Z,16.6
2022-08-07T00:58:00.183Z,16.6
2022-08-07T00:59:00.535Z,16.6
2022-08-07T01:00:01.035Z,16.6
2022-08-07T01:01:00.289Z,16.6
2022-08-07T01:02:00.298Z,16.5
2022-08-07T01:03:00.243Z,16.5
2022-08-07T01:04:03.283Z,16.5
2022-08-07T01:05:03.352Z,16.5
2022-08-07T01:06:00.189Z,16.5
2022-08-07T01:07:00.755Z,16.5
2022-08-07T01:08:00.424Z,16.4
2022-08-07T01:09:01.432Z,16.4
2022-08-07T01:10:06.925Z,16.4
2022-08-07T01:11:00.794Z,16.4
2022-08-07T01:12:10.005Z,16.4
2022-08-07T01:13:00.288Z,16.4
2022-08-07T01:14:00.329Z,16.4
2022-08-07T01:15:01.235Z,16.4
2022-08-07T01:16:05.950Z,16.3
2022-08-07T01:17:00.183Z,16.3
2022-08-07T01:18:00.548Z,16.3
2022-08-07T01:19:00.180Z,16.3
2022-08-07T01:20:04.483Z,16.3
2022-08-07T01:21:05.347Z,16.3
2022-08-07T01:22:00.317Z,16.3
2022-08-07T01:23:12.695Z,16.3
2022-08-07T01:24:00.421Z,16.3
2022-08-07T01:25:01.160Z,16.3
2022-08-07T01:26:00.627Z,16.2
2022-08-07T01:27:00.298Z,16.2
2022-08-07T01:28:00.257Z,16.3
2022-08-07T01:29:00.434Z,16.3
2022-08-07T01:30:00.888Z,16.2
2022-08-07T01:31:01.177Z,16.2
2022-08-07T01:32:00.542Z,16.2
2022-08-07T01:33:00.200Z,16.2
2022-08-07T01:34:00.557Z,16.1
2022-08-07T01:35:00.333Z,16.1
2022-08-07T01:36:06.291Z,16.1
2022-08-07T01:37:00.411Z,16.1
2022-08-07T01:38:00.459Z,16.1
2022-08-07T01:39:00.791Z,16.1
2022-08-07T01:40:00.339Z,16.1
2022-08-07T01:41:01.979Z,16.1
2022-08-07T01:42:38.024Z,16.1
2022-08-07T01:43:00.293Z,16.1
2022-08-07T01:44:01.729Z,16.1
2022-08-07T01:45:00.926Z,16.1
2022-08-07T01:46:01.300Z,16.0
2022-08-07T01:47:00.977Z,16.0
2022-08-07T01:48:17.722Z,16.0
2022-08-07T01:49:00.208Z,16.0
2022-08-07T01:50:00.649Z,16.0
2022-08-07T01:51:17.144Z,16.0
2022-08-07T01:52:04.434Z,16.0
2022-08-07T01:53:01.043Z,16.0
2022-08-07T01:54:11.733Z,15.9
2022-08-07T01:55:00.560Z,15.9
2022-08-07T01:56:02.331Z,15.9
2022-08-07T01:57:03.768Z,15.9
2022-08-07T01:58:27.238Z,16.0
2022-08-07T01:59:04.940Z,16.0
2022-08-07T02:00:01.575Z,15.9
2022-08-07T02:01:10.056Z,15.9
2022-08-07T02:02:04.407Z,15.8
2022-08-07T02:03:18.136Z,15.8
2022-08-07T02:04:03.271Z,15.9
2022-08-07T02:05:04.650Z,15.9
2022-08-07T02:06:02.536Z,15.9
2022-08-07T02:07:01.395Z,15.9
2022-08-07T02:08:01.891Z,15.9
2022-08-07T02:09:03.695Z,15.9
2022-08-07T02:10:01.122Z,15.8
2022-08-07T02:11:03.270Z,15.8
2022-08-07T02:12:03.894Z,15.7
2022-08-07T02:13:01.920Z,15.7
2022-08-07T02:14:02.502Z,15.8
2022-08-07T02:15:01.011Z,15.8
2022-08-07T02:16:01.717Z,15.8
2022-08-07T02:17:00.224Z,15.8
2022-08-07T02:18:01.417Z,15.7
2022-08-07T02:19:02.274Z,15.7
2022-08-07T02:20:05.479Z,15.8
2022-08-07T02:21:06.321Z,15.8
2022-08-07T02:22:00.418Z,15.7
2022-08-07T02:23:01.914Z,15.7
2022-08-07T02:24:01.681Z,15.6
2022-08-07T02:25:01.486Z,15.6
2022-08-07T02:26:31.576Z,15.6
2022-08-07T02:27:01.646Z,15.6
2022-08-07T02:28:00.604Z,15.6
2022-08-07T02:29:01.355Z,15.6
2022-08-07T02:30:03.900Z,15.4
2022-08-07T02:31:10.324Z,15.4
2022-08-07T02:32:01.462Z,15.6
2022-08-07T02:33:09.009Z,15.6
2022-08-07T02:34:03.523Z,15.4
2022-08-07T02:35:00.984Z,15.4
2022-08-07T02:36:29.081Z,15.4
2022-08-07T02:37:02.075Z,15.4
2022-08-07T02:38:01.492Z,15.3
2022-08-07T02:39:01.788Z,15.3
2022-08-07T02:40:11.924Z,15.4
2022-08-07T02:41:03.826Z,15.4
2022-08-07T02:42:00.867Z,15.3
2022-08-07T02:43:00.863Z,15.3
2022-08-07T02:44:00.921Z,15.2
2022-08-07T02:45:00.959Z,15.2
2022-08-07T02:46:02.497Z,15.3
2022-08-07T02:47:01.914Z,15.3
2022-08-07T02:48:01.772Z,15.3
2022-08-07T02:49:00.284Z,15.3
2022-08-07T02:50:00.337Z,15.3
2022-08-07T02:51:03.999Z,15.3
2022-08-07T02:52:02.316Z,15.3
2022-08-07T02:53:06.503Z,15.3
2022-08-07T02:54:01.826Z,15.2
2022-08-07T02:55:03.734Z,15.2
2022-08-07T02:56:03.198Z,15.4
2022-08-07T02:57:00.938Z,15.4
2022-08-07T02:58:02.720Z,15.1
2022-08-07T02:59:02.793Z,15.1
2022-08-07T03:00:01.514Z,15.2
2022-08-07T03:01:01.042Z,15.2
2022-08-07T03:02:01.110Z,15.2
2022-08-07T03:03:05.889Z,15.2
2022-08-07T03:04:03.380Z,15.2
2022-08-07T03:05:04.999Z,15.2
2022-08-07T03:06:00.670Z,15.2
2022-08-07T03:07:07.082Z,15.2
2022-08-07T03:08:07.502Z,15.2
2022-08-07T03:09:00.852Z,15.2
2022-08-07T03:10:01.147Z,15.2
2022-08-07T03:11:00.226Z,15.2
2022-08-07T03:12:02.913Z,15.1
2022-08-07T03:13:00.457Z,15.1
2022-08-07T03:14:02.097Z,15.1
2022-08-07T03:15:02.454Z,15.1
2022-08-07T03:16:00.265Z,15.1
2022-08-07T03:17:00.311Z,15.1
2022-08-07T03:18:00.491Z,14.9
2022-08-07T03:19:00.360Z,14.9
2022-08-07T03:20:00.593Z,15.0
2022-08-07T03:21:00.429Z,15.0
2022-08-07T03:22:01.118Z,15.1
2022-08-07T03:23:01.461Z,15.1
2022-08-07T03:24:19.630Z,14.9
2022-08-07T03:25:00.474Z,14.9
2022-08-07T03:26:01.627Z,15.0
2022-08-07T03:27:01.551Z,15.0
2022-08-07T03:28:37.026Z,15.0
2022-08-07T03:29:00.999Z,15.0
2022-08-07T03:30:00.279Z,15.0
2022-08-07T03:31:00.702Z,15.0
2022-08-07T03:32:01.621Z,15.1
2022-08-07T03:33:00.955Z,15.1
2022-08-07T03:34:00.683Z,14.9
2022-08-07T03:35:18.160Z,14.9
2022-08-07T03:36:00.287Z,14.9
2022-08-07T03:37:01.589Z,14.9
2022-08-07T03:38:01.663Z,14.9
2022-08-07T03:39:05.281Z,14.9
2022-08-07T03:40:15.502Z,15.0
2022-08-07T03:41:00.809Z,15.0
2022-08-07T03:42:01.999Z,15.0
2022-08-07T03:43:00.568Z,15.0
2022-08-07T03:44:00.355Z,14.8
2022-08-07T03:45:01.370Z,14.8
2022-08-07T03:46:01.378Z,14.8
2022-08-07T03:47:10.886Z,14.8
2022-08-07T03:48:00.580Z,14.9
2022-08-07T03:49:02.855Z,14.9
2022-08-07T03:50:02.935Z,14.9
2022-08-07T03:51:01.305Z,14.9
2022-08-07T03:52:01.902Z,14.8
2022-08-07T03:53:00.684Z,14.8
2022-08-07T03:54:33.904Z,14.9
2022-08-07T03:55:06.740Z,14.9
2022-08-07T03:56:04.304Z,14.8
2022-08-07T03:57:07.046Z,14.8
2022-08-07T03:58:35.343Z,14.6
2022-08-07T03:59:09.187Z,14.6
2022-08-07T04:00:02.771Z,14.5
2022-08-07T04:01:01.114Z,14.5
2022-08-07T04:02:00.508Z,14.6
2022-08-07T04:03:03.836Z,14.6
2022-08-07T04:04:00.220Z,14.7
2022-08-07T04:05:00.314Z,14.7
2022-08-07T04:06:00.184Z,14.7
2022-08-07T04:07:00.320Z,14.7
2022-08-07T04:08:00.877Z,14.7
2022-08-07T04:09:00.766Z,14.7
2022-08-07T04:10:02.102Z,14.7
2022-08-07T04:12:15.690Z,14.7
2022-08-07T04:12:23.806Z,14.7
2022-08-07T04:13:01.363Z,14.7
2022-08-07T04:14:10.833Z,14.7
2022-08-07T04:15:00.514Z,14.7
2022-08-07T04:16:00.439Z,14.6
2022-08-07T04:17:00.219Z,14.6
2022-08-07T04:18:31.360Z,14.6
2022-08-07T04:19:01.598Z,14.6
2022-08-07T04:20:00.202Z,14.6
2022-08-07T04:21:00.258Z,14.6
2022-08-07T04:22:08.628Z,14.6
2022-08-07T04:23:01.540Z,14.6
2022-08-07T04:24:07.045Z,14.5
2022-08-07T04:25:01.003Z,14.5
2022-08-07T04:26:00.566Z,14.5
2022-08-07T04:27:00.428Z,14.5
2022-08-07T04:28:00.993Z,14.5
2022-08-07T04:29:00.175Z,14.5
2022-08-07T04:30:02.802Z,14.5
2022-08-07T04:31:00.542Z,14.5
2022-08-07T04:32:09.801Z,14.5
2022-08-07T04:33:07.380Z,14.5
2022-08-07T04:34:00.683Z,14.5
2022-08-07T04:35:00.713Z,14.5
2022-08-07T04:36:00.744Z,14.6
2022-08-07T04:37:00.347Z,14.6
2022-08-07T04:38:06.933Z,14.5
2022-08-07T04:39:01.036Z,14.5
2022-08-07T04:40:00.794Z,14.6
2022-08-07T04:41:00.270Z,14.6
2022-08-07T04:42:01.138Z,14.5
2022-08-07T04:43:01.866Z,14.5
2022-08-07T04:44:12.164Z,14.4
2022-08-07T04:45:07.921Z,14.4
2022-08-07T04:46:05.206Z,14.5
2022-08-07T04:47:07.931Z,14.5
2022-08-07T04:48:10.709Z,14.5
2022-08-07T04:49:17.710Z,14.5
2022-08-07T04:50:05.326Z,14.5
2022-08-07T04:51:10.093Z,14.5
2022-08-07T04:52:00.197Z,14.5
2022-08-07T04:53:05.905Z,14.5
2022-08-07T04:54:06.485Z,14.6
2022-08-07T04:55:15.370Z,14.6
2022-08-07T04:58:09.905Z,14.6
2022-08-07T04:58:11.157Z,14.6
2022-08-07T04:58:33.763Z,14.6
2022-08-07T05:00:12.779Z,14.6
2022-08-07T05:00:18.819Z,14.5
2022-08-07T05:01:01.227Z,14.5
2022-08-07T05:02:04.591Z,14.4
2022-08-07T05:03:31.054Z,14.4
2022-08-07T05:04:08.607Z,14.4
2022-08-07T05:05:11.250Z,14.4
2022-08-07T05:06:19.175Z,14.5
2022-08-07T05:07:19.528Z,14.5
2022-08-07T05:08:04.927Z,14.5
2022-08-07T05:09:02.310Z,14.5
2022-08-07T05:10:07.368Z,14.4
2022-08-07T05:11:07.493Z,14.4
2022-08-07T05:12:02.662Z,14.3
2022-08-07T05:13:10.069Z,14.3
2022-08-07T05:14:55.792Z,14.5
2022-08-07T05:15:09.856Z,14.5
2022-08-07T05:16:04.565Z,14.6
2022-08-07T05:17:02.096Z,14.6
2022-08-07T05:18:06.162Z,14.5
2022-08-07T05:19:02.288Z,14.5
2022-08-07T05:20:00.422Z,14.4
2022-08-07T05:21:02.283Z,14.4
2022-08-07T05:22:01.882Z,14.5
2022-08-07T05:23:02.922Z,14.5
2022-08-07T05:24:01.741Z,14.5
2022-08-07T05:25:00.610Z,14.5
2022-08-07T05:26:11.859Z,14.6
2022-08-07T05:27:00.809Z,14.6
2022-08-07T05:28:03.068Z,14.6
2022-08-07T05:29:04.367Z,14.6
2022-08-07T05:30:00.793Z,14.6
2022-08-07T05:31:00.404Z,14.6
2022-08-07T05:32:00.869Z,14.6
2022-08-07T05:33:02.494Z,14.6
2022-08-07T05:34:05.645Z,14.5
2022-08-07T05:35:02.117Z,14.5
2022-08-07T05:36:00.359Z,14.5
2022-08-07T05:37:00.499Z,14.5
2022-08-07T05:38:08.295Z,14.6
2022-08-07T05:40:03.762Z,14.6
2022-08-07T05:40:14.159Z,14.7
2022-08-07T05:41:00.852Z,14.7
2022-08-07T05:42:03.816Z,14.8
2022-08-07T05:43:00.285Z,14.8
2022-08-07T05:44:12.212Z,14.8
2022-08-07T05:45:14.261Z,14.8
2022-08-07T05:46:00.324Z,14.8
2022-08-07T05:47:01.060Z,14.8
2022-08-07T05:48:03.031Z,14.9
2022-08-07T05:49:00.619Z,14.9
2022-08-07T05:50:00.901Z,14.8
2022-08-07T05:51:01.351Z,14.8
2022-08-07T05:52:00.203Z,14.9
2022-08-07T05:53:00.805Z,14.9
2022-08-07T05:54:09.540Z,15.1
2022-08-07T05:55:07.244Z,15.1
2022-08-07T05:56:03.796Z,15.1
2022-08-07T05:57:01.120Z,15.1
2022-08-07T05:58:01.214Z,15.1
2022-08-07T05:59:01.476Z,15.1
2022-08-07T06:00:01.327Z,15.2
2022-08-07T06:01:00.555Z,15.2
2022-08-07T06:02:01.078Z,15.3
2022-08-07T06:03:02.399Z,15.3
2022-08-07T06:04:02.206Z,15.3
2022-08-07T06:05:04.403Z,15.3
2022-08-07T06:06:00.430Z,15.3
2022-08-07T06:07:03.711Z,15.3
2022-08-07T06:08:14.333Z,15.4
2022-08-07T06:09:00.981Z,15.4
2022-08-07T06:10:05.778Z,15.4
2022-08-07T06:11:00.319Z,15.4
2022-08-07T06:12:00.347Z,15.4
2022-08-07T06:13:00.779Z,15.4
2022-08-07T06:14:11.446Z,15.5
2022-08-07T06:15:05.207Z,15.5
2022-08-07T06:16:00.224Z,15.5
2022-08-07T06:17:01.733Z,15.5
2022-08-07T06:18:01.186Z,15.6
2022-08-07T06:19:00.704Z,15.6
2022-08-07T06:20:04.190Z,15.7
2022-08-07T06:22:14.680Z,15.7
2022-08-07T06:22:16.131Z,15.7
2022-08-07T06:23:02.058Z,15.7
2022-08-07T06:24:38.006Z,15.8
2022-08-07T06:25:01.192Z,15.8
2022-08-07T06:26:01.053Z,15.9
2022-08-07T06:27:00.178Z,15.9
2022-08-07T06:28:02.963Z,15.9
2022-08-07T06:29:01.144Z,15.9
2022-08-07T06:30:00.539Z,16.0
2022-08-07T06:31:00.159Z,16.0
2022-08-07T06:32:00.444Z,16.0
2022-08-07T06:33:00.537Z,16.0
2022-08-07T06:34:00.610Z,16.2
2022-08-07T06:35:00.161Z,16.2
2022-08-07T06:36:06.594Z,16.1
2022-08-07T06:37:02.783Z,16.1
2022-08-07T06:38:00.201Z,16.2
2022-08-07T06:40:13.317Z,16.3
2022-08-07T06:40:16.426Z,16.2
2022-08-07T06:41:01.434Z,16.3
2022-08-07T06:42:03.259Z,16.4
2022-08-07T06:43:01.749Z,16.4
2022-08-07T06:44:06.738Z,16.4
2022-08-07T06:45:01.094Z,16.4
2022-08-07T06:46:01.231Z,16.5
2022-08-07T06:47:12.257Z,16.5
2022-08-07T06:48:00.673Z,16.5
2022-08-07T06:49:00.320Z,16.5
2022-08-07T06:50:00.318Z,16.8
2022-08-07T06:51:08.194Z,16.8
2022-08-07T06:52:07.275Z,16.7
2022-08-07T06:53:04.209Z,16.7
2022-08-07T06:55:30.029Z,16.8
2022-08-07T06:55:31.679Z,16.8
2022-08-07T06:56:02.089Z,16.9
2022-08-07T06:57:01.045Z,16.9
2022-08-07T06:58:02.108Z,16.9
2022-08-07T07:00:13.310Z,16.9
2022-08-07T07:00:14.423Z,16.9
2022-08-07T07:01:01.552Z,16.9
2022-08-07T07:02:01.260Z,17.0
2022-08-07T07:03:01.361Z,17.0
2022-08-07T07:04:08.254Z,17.1
2022-08-07T07:05:00.190Z,17.1
2022-08-07T07:06:02.480Z,17.1
2022-08-07T07:07:01.871Z,17.1
2022-08-07T07:08:06.519Z,17.2
2022-08-07T07:09:10.105Z,17.2
2022-08-07T07:10:00.185Z,17.2
2022-08-07T07:11:01.150Z,17.2
2022-08-07T07:12:07.792Z,17.3
2022-08-07T07:13:05.771Z,17.3
2022-08-07T07:14:02.447Z,17.4
2022-08-07T07:15:03.978Z,17.4
2022-08-07T07:16:01.778Z,17.3
2022-08-07T07:17:03.383Z,17.3
2022-08-07T07:18:08.870Z,17.5
2022-08-07T07:19:11.185Z,17.5
2022-08-07T07:20:02.928Z,17.5
2022-08-07T07:21:13.458Z,17.5
2022-08-07T07:22:05.431Z,17.6
2022-08-07T07:24:06.654Z,17.6
2022-08-07T07:24:09.775Z,17.7
2022-08-07T07:26:32.563Z,17.7
2022-08-07T07:26:34.471Z,17.8
2022-08-07T07:27:02.828Z,17.8
2022-08-07T07:28:42.669Z,17.8
2022-08-07T07:29:38.895Z,17.8
2022-08-07T07:30:09.850Z,17.9
2022-08-07T07:31:02.734Z,17.9
2022-08-07T07:32:01.109Z,18.0
2022-08-07T07:33:01.350Z,18.0
2022-08-07T07:34:03.674Z,18.1
2022-08-07T07:35:01.918Z,18.1
2022-08-07T07:36:04.836Z,18.1
2022-08-07T07:37:14.375Z,18.1
2022-08-07T07:38:02.492Z,18.2
2022-08-07T07:39:01.754Z,18.2
2022-08-07T07:40:01.621Z,18.3
2022-08-07T07:41:02.573Z,18.3
2022-08-07T07:42:08.667Z,18.4
2022-08-07T07:43:11.523Z,18.4
2022-08-07T07:44:17.080Z,18.5
2022-08-07T07:45:01.230Z,18.5
2022-08-07T07:46:36.837Z,18.6
2022-08-07T07:47:14.045Z,18.6
2022-08-07T07:48:01.047Z,18.6
2022-08-07T07:50:15.922Z,18.6
2022-08-07T07:50:34.439Z,18.8
2022-08-07T07:51:00.624Z,18.8
2022-08-07T07:52:01.374Z,18.9
2022-08-07T07:53:01.164Z,18.9
2022-08-07T07:54:00.848Z,19.0
2022-08-07T07:55:03.422Z,19.0
2022-08-07T07:56:01.267Z,18.9
2022-08-07T07:57:01.474Z,18.9
2022-08-07T07:58:01.068Z,19.0
2022-08-07T07:59:01.958Z,19.0
2022-08-07T08:00:00.894Z,19.0
2022-08-07T08:01:00.956Z,19.0
2022-08-07T08:02:10.288Z,19.2
2022-08-07T08:03:06.899Z,19.2
2022-08-07T08:04:10.017Z,19.2
2022-08-07T08:05:01.773Z,19.2
2022-08-07T08:06:00.448Z,19.3
2022-08-07T08:07:02.845Z,19.3
2022-08-07T08:08:01.567Z,19.3
2022-08-07T08:09:01.899Z,19.3
2022-08-07T08:10:04.823Z,19.3
2022-08-07T08:11:00.862Z,19.3
2022-08-07T08:12:03.719Z,19.5
2022-08-07T08:13:00.594Z,19.5
2022-08-07T08:14:00.348Z,19.6
2022-08-07T08:15:00.689Z,19.6
2022-08-07T08:16:01.048Z,19.7
2022-08-07T08:17:55.632Z,19.7
2022-08-07T08:18:17.160Z,19.6
2022-08-07T08:19:09.795Z,19.6
2022-08-07T08:20:17.056Z,19.6
2022-08-07T08:21:00.866Z,19.6
2022-08-07T08:22:03.425Z,19.8
2022-08-07T08:23:00.902Z,19.8
2022-08-07T08:24:01.644Z,19.8
2022-08-07T08:25:18.744Z,19.8
2022-08-07T08:26:06.644Z,19.9
2022-08-07T08:27:01.584Z,19.9
2022-08-07T08:28:04.031Z,20.0
2022-08-07T08:29:01.683Z,20.0
2022-08-07T08:30:04.026Z,20.1
2022-08-07T08:31:02.600Z,20.1
2022-08-07T08:33:01.867Z,20.1
2022-08-07T08:34:01.589Z,20.2
2022-08-07T08:35:00.873Z,20.2
2022-08-07T08:36:01.336Z,20.3
2022-08-07T08:37:02.176Z,20.3
2022-08-07T08:38:03.389Z,20.2
2022-08-07T08:39:02.283Z,20.2
2022-08-07T08:40:00.745Z,20.4
2022-08-07T08:41:10.093Z,20.4
2022-08-07T08:42:03.256Z,20.5
2022-08-07T08:43:09.718Z,20.5
2022-08-07T08:44:07.340Z,20.6
2022-08-07T08:45:13.002Z,20.6
2022-08-07T08:46:00.799Z,20.7
2022-08-07T08:47:03.417Z,20.7
2022-08-07T08:48:03.393Z,20.7
2022-08-07T08:49:05.846Z,20.7
2022-08-07T08:50:05.224Z,20.8
2022-08-07T08:51:14.732Z,20.8
2022-08-07T08:52:14.240Z,20.9
2022-08-07T08:53:10.093Z,20.9
2022-08-07T08:54:07.573Z,20.9
2022-08-07T08:55:07.574Z,20.9
2022-08-07T08:56:03.205Z,20.9
2022-08-07T08:57:02.894Z,20.9
2022-08-07T08:58:05.373Z,21.2
2022-08-07T08:59:08.702Z,21.2
2022-08-07T09:00:03.993Z,21.2
2022-08-07T09:01:15.207Z,21.2
2022-08-07T09:02:03.473Z,21.2
2022-08-07T09:03:07.697Z,21.2
2022-08-07T09:04:00.154Z,21.3
2022-08-07T09:05:10.102Z,21.3
2022-08-07T09:06:06.981Z,21.4
2022-08-07T09:07:00.136Z,21.4
2022-08-07T09:08:10.115Z,21.4
2022-08-07T09:09:00.145Z,21.4
2022-08-07T09:10:06.142Z,21.5
2022-08-07T09:11:10.112Z,21.5
2022-08-07T09:12:31.284Z,21.5
2022-08-07T09:13:01.158Z,21.5
2022-08-07T09:14:09.828Z,21.6
2022-08-07T09:16:23.996Z,21.6
2022-08-07T09:16:24.390Z,21.6
2022-08-07T09:17:09.513Z,21.6
2022-08-07T09:18:15.805Z,21.7
2022-08-07T09:19:44.873Z,21.7
2022-08-07T09:20:35.703Z,21.8
2022-08-07T09:21:03.404Z,21.8
2022-08-07T09:24:27.256Z,21.9
2022-08-07T09:24:31.970Z,21.9
2022-08-07T09:24:33.303Z,22.0
2022-08-07T09:25:14.622Z,22.0
2022-08-07T09:26:00.143Z,22.1
2022-08-07T09:27:02.000Z,22.1
2022-08-07T09:28:02.048Z,22.1
2022-08-07T09:30:06.697Z,22.1
2022-08-07T09:30:09.143Z,22.1
2022-08-07T09:31:10.109Z,22.1
2022-08-07T09:32:17.259Z,22.1
2022-08-07T09:33:16.257Z,22.1
2022-08-07T09:34:03.384Z,22.3
2022-08-07T09:35:04.573Z,22.3
2022-08-07T09:36:05.063Z,22.1
2022-08-07T09:37:10.109Z,22.1
2022-08-07T09:38:05.756Z,22.3
2022-08-07T09:39:18.252Z,22.3
2022-08-07T09:40:04.514Z,22.3
2022-08-07T09:41:10.107Z,22.3
2022-08-07T09:42:10.092Z,22.4
2022-08-07T09:43:10.111Z,22.4
2022-08-07T09:44:10.243Z,22.5
2022-08-07T09:47:26.145Z,22.5
2022-08-07T09:47:51.687Z,22.5
2022-08-07T09:47:52.542Z,22.5
2022-08-07T09:48:07.578Z,22.6
2022-08-07T09:50:00.935Z,22.6
2022-08-07T09:50:19.266Z,22.7
2022-08-07T09:51:14.829Z,22.7
2022-08-07T09:52:15.901Z,22.6
2022-08-07T09:53:03.376Z,22.6
2022-08-07T09:54:02.820Z,22.6
2022-08-07T09:55:03.421Z,22.6
2022-08-07T09:56:10.096Z,22.8
2022-08-07T09:57:03.381Z,22.8
2022-08-07T09:58:03.405Z,23.1
2022-08-07T09:59:07.777Z,23.1
2022-08-07T10:00:03.313Z,23.0
2022-08-07T10:01:50.431Z,23.0
2022-08-07T10:02:10.125Z,23.1
2022-08-07T10:03:08.433Z,23.1
2022-08-07T10:04:14.928Z,23.2
2022-08-07T10:05:12.432Z,23.2
2022-08-07T10:06:12.064Z,23.2
2022-08-07T10:07:06.051Z,23.2
2022-08-07T10:08:02.351Z,23.3
2022-08-07T10:09:01.170Z,23.3
2022-08-07T10:10:11.981Z,23.5
2022-08-07T10:11:59.753Z,23.5
2022-08-07T10:12:11.086Z,23.6
2022-08-07T10:13:15.737Z,23.6
2022-08-07T10:14:08.042Z,23.4
2022-08-07T10:15:06.323Z,23.4
2022-08-07T10:16:07.652Z,23.3
2022-08-07T10:17:13.349Z,23.3
2022-08-07T10:18:10.125Z,23.3
2022-08-07T10:19:11.560Z,23.3
2022-08-07T10:20:01.142Z,23.3
2022-08-07T10:21:19.756Z,23.3
2022-08-07T10:22:15.765Z,23.2
2022-08-07T10:23:10.100Z,23.2
2022-08-07T10:24:10.076Z,23.2
2022-08-07T10:25:00.155Z,23.2
2022-08-07T10:26:05.689Z,23.4
2022-08-07T10:27:10.627Z,23.4
2022-08-07T10:28:10.099Z,23.4
2022-08-07T10:29:10.093Z,23.4
2022-08-07T10:30:03.459Z,23.5
2022-08-07T10:31:01.160Z,23.5
2022-08-07T10:32:33.328Z,23.6
2022-08-07T10:33:13.042Z,23.6
2022-08-07T10:34:17.895Z,23.7
2022-08-07T10:35:03.397Z,23.7
2022-08-07T10:36:12.407Z,23.8
2022-08-07T10:37:04.027Z,23.8
2022-08-07T10:38:09.754Z,23.8
2022-08-07T10:39:09.015Z,23.8
2022-08-07T10:40:09.504Z,23.9
2022-08-07T10:41:10.112Z,23.9
2022-08-07T10:42:20.884Z,24.1
2022-08-07T10:43:07.625Z,24.1
2022-08-07T10:44:07.581Z,24.3
2022-08-07T10:45:05.815Z,24.3
2022-08-07T10:46:04.619Z,24.5
2022-08-07T10:47:11.720Z,24.5
2022-08-07T10:48:03.615Z,24.5
2022-08-07T10:49:10.091Z,24.5
2022-08-07T10:50:01.141Z,24.5
2022-08-07T10:51:16.604Z,24.5
2022-08-07T10:52:13.044Z,24.6
2022-08-07T10:53:08.932Z,24.6
2022-08-07T10:54:10.103Z,24.6
2022-08-07T10:55:08.005Z,24.6
2022-08-07T10:56:11.158Z,24.8
2022-08-07T10:57:00.138Z,24.8
2022-08-07T10:58:10.248Z,24.8
2022-08-07T10:59:08.539Z,24.8
2022-08-07T11:00:04.338Z,24.8
2022-08-07T11:01:00.776Z,24.8
2022-08-07T11:02:12.018Z,24.9
2022-08-07T11:03:11.128Z,24.9
2022-08-07T11:04:17.006Z,24.8
2022-08-07T11:05:10.830Z,24.8
2022-08-07T11:06:00.155Z,24.8
2022-08-07T11:07:03.149Z,24.8
2022-08-07T11:08:11.870Z,24.7
2022-08-07T11:09:04.558Z,24.7
2022-08-07T11:10:10.363Z,24.8
2022-08-07T11:11:02.983Z,24.8
2022-08-07T11:12:01.688Z,24.8
2022-08-07T11:13:42.348Z,24.8
2022-08-07T11:14:44.102Z,25.0
2022-08-07T11:15:14.706Z,25.0
2022-08-07T11:16:03.507Z,25.0
2022-08-07T11:17:07.217Z,25.0
2022-08-07T11:18:10.134Z,25.1
2022-08-07T11:19:06.898Z,25.1
2022-08-07T11:20:05.359Z,25.1
2022-08-07T11:21:06.481Z,25.1
2022-08-07T11:22:06.342Z,25.1
2022-08-07T11:23:01.419Z,25.1
2022-08-07T11:24:01.155Z,25.3
2022-08-07T11:25:06.672Z,25.3
2022-08-07T11:26:06.407Z,25.4
2022-08-07T11:27:02.268Z,25.4
2022-08-07T11:28:04.373Z,25.5
2022-08-07T11:29:12.875Z,25.5
2022-08-07T11:30:18.179Z,25.6
2022-08-07T11:31:01.155Z,25.6
2022-08-07T11:32:04.821Z,25.6
2022-08-07T11:34:04.418Z,25.6
2022-08-07T11:35:03.032Z,25.6
2022-08-07T11:36:01.485Z,25.5
2022-08-07T11:37:06.731Z,25.5
2022-08-07T11:38:12.422Z,25.1
2022-08-07T11:39:08.224Z,25.1
2022-08-07T11:40:10.224Z,25.1
2022-08-07T11:41:04.958Z,25.1
2022-08-07T11:42:02.958Z,25.3
2022-08-07T11:43:00.150Z,25.3
2022-08-07T11:44:12.514Z,25.1
2022-08-07T11:45:10.098Z,25.1
2022-08-07T11:46:10.109Z,25.2
2022-08-07T11:47:00.137Z,25.2
2022-08-07T11:48:06.001Z,25.2
2022-08-07T11:49:50.804Z,25.2
2022-08-07T11:50:30.360Z,25.2
2022-08-07T11:51:10.113Z,25.2
2022-08-07T11:52:07.674Z,25.3
2022-08-07T11:53:10.100Z,25.3
2022-08-07T11:54:10.349Z,25.4
2022-08-07T11:55:18.563Z,25.4
2022-08-07T11:56:26.786Z,25.5
2022-08-07T11:57:03.408Z,25.5
2022-08-07T11:58:01.557Z,25.6
2022-08-07T11:59:22.254Z,25.6
2022-08-07T12:00:11.298Z,25.7
2022-08-07T12:01:10.110Z,25.7
2022-08-07T12:02:17.667Z,25.8
2022-08-07T12:03:42.160Z,25.8
2022-08-07T12:04:00.176Z,25.7
2022-08-07T12:05:01.154Z,25.7
2022-08-07T12:06:36.474Z,25.8
2022-08-07T12:07:07.979Z,25.8
2022-08-07T12:08:06.211Z,25.7
2022-08-07T12:09:07.461Z,25.7
2022-08-07T12:10:05.745Z,25.7
2022-08-07T12:11:20.233Z,25.7
2022-08-07T12:12:10.365Z,25.8
2022-08-07T12:13:02.997Z,25.8
2022-08-07T12:14:10.114Z,25.8
2022-08-07T12:15:04.668Z,25.8
2022-08-07T12:16:06.084Z,25.8
2022-08-07T12:17:01.871Z,25.8
2022-08-07T12:18:08.210Z,25.8
2022-08-07T12:19:09.397Z,25.8
2022-08-07T12:20:09.531Z,25.8
2022-08-07T12:21:10.094Z,25.8
2022-08-07T12:22:37.156Z,26.0
2022-08-07T12:23:00.155Z,26.0
2022-08-07T12:24:37.024Z,25.9
2022-08-07T12:25:10.107Z,25.9
2022-08-07T12:26:22.811Z,25.7
2022-08-07T12:27:03.782Z,25.7
2022-08-07T12:28:09.101Z,25.7
2022-08-07T12:29:04.780Z,25.7
2022-08-07T12:30:01.823Z,26.0
2022-08-07T12:31:04.629Z,26.0
2022-08-07T12:32:13.051Z,26.0
2022-08-07T12:33:03.295Z,26.0
2022-08-07T12:34:04.002Z,26.1
2022-08-07T12:35:01.751Z,26.1
2022-08-07T12:36:02.261Z,26.0
2022-08-07T12:37:00.996Z,26.0
2022-08-07T12:38:11.620Z,26.0
2022-08-07T12:39:01.376Z,26.0
2022-08-07T12:40:01.833Z,26.0
2022-08-07T12:41:01.819Z,26.0
2022-08-07T12:42:00.685Z,26.2
2022-08-07T12:43:01.775Z,26.2
2022-08-07T12:44:06.436Z,26.3
2022-08-07T12:45:06.418Z,26.3
2022-08-07T12:46:01.212Z,26.4
2022-08-07T12:47:07.497Z,26.4
2022-08-07T12:48:02.961Z,26.5
2022-08-07T12:49:10.145Z,26.5
2022-08-07T12:50:38.244Z,26.6
2022-08-07T12:51:12.853Z,26.6
2022-08-07T12:52:13.727Z,26.3
2022-08-07T12:53:18.150Z,26.3
2022-08-07T13:22:19.053Z,25.5
2022-08-07T13:23:09.733Z,25.5
2022-08-07T13:24:04.739Z,25.5
2022-08-07T13:25:10.111Z,25.9
2022-08-07T13:26:01.495Z,25.9
2022-08-07T13:27:07.386Z,26.3
2022-08-07T13:28:11.030Z,26.3
2022-08-07T13:29:10.100Z,26.3
2022-08-07T13:30:03.928Z,26.3
2022-08-07T13:31:12.906Z,26.4
2022-08-07T13:32:31.066Z,26.4
2022-08-07T13:33:03.392Z,26.4
2022-08-07T13:34:34.089Z,26.4
2022-08-07T13:35:10.095Z,26.5
2022-08-07T13:36:05.323Z,26.5
2022-08-07T13:37:10.457Z,26.6
2022-08-07T13:38:07.456Z,26.6
2022-08-07T13:39:13.000Z,26.7
2022-08-07T13:40:36.238Z,26.7
2022-08-07T13:41:05.420Z,26.8
2022-08-07T13:42:00.492Z,26.8
2022-08-07T13:43:01.782Z,27.0
2022-08-07T13:44:02.567Z,27.0
2022-08-07T13:46:06.768Z,26.9
2022-08-07T13:46:11.105Z,26.9
2022-08-07T13:47:01.753Z,27.0
2022-08-07T13:48:08.161Z,27.0